createdAt,value
2022-08-05T00:00:20.350Z,10.05
2022-08-05T00:02:50.807Z,10.90
2022-08-05T00:05:27.131Z,12.00
2022-08-05T00:08:34.199Z,11.35
2022-08-05T00:11:00.952Z,12.88
2022-08-05T00:13:38.715Z,19.88
2022-08-05T00:16:12.943Z,23.48
2022-08-05T00:18:46.739Z,23.85
2022-08-05T00:21:17.665Z,24.52
2022-08-05T00:23:53.535Z,24.75
2022-08-05T00:26:32.623Z,25.42
2022-08-05T00:29:00.102Z,28.98
2022-08-05T00:31:54.309Z,27.83
2022-08-05T00:34:54.741Z,27.15
2022-08-05T00:37:09.902Z,22.05
2022-08-05T00:39:57.365Z,19.40
2022-08-05T00:42:34.328Z,17.55
2022-08-05T00:45:02.858Z,17.40
2022-08-05T00:47:53.208Z,17.50
2022-08-05T00:50:18.044Z,16.00
2022-08-05T00:52:46.782Z,17.60
2022-08-05T00:55:14.942Z,17.20
2022-08-05T00:57:58.337Z,19.67
2022-08-05T01:00:28.052Z,16.73
2022-08-05T01:02:59.680Z,24.30
2022-08-05T01:05:27.977Z,27.17
2022-08-05T01:08:30.676Z,31.55
2022-08-05T01:10:56.811Z,30.65
2022-08-05T01:13:58.847Z,29.08
2022-08-05T01:16:49.268Z,28.65
2022-08-05T01:19:36.775Z,24.33
2022-08-05T01:22:34.090Z,27.30
2022-08-05T01:25:40.220Z,25.27
2022-08-05T01:28:28.211Z,21.25
2022-08-05T01:31:15.440Z,20.17
2022-08-05T01:33:56.890Z,21.25
2022-08-05T01:36:30.368Z,25.88
2022-08-05T01:39:01.043Z,19.30
2022-08-05T01:44:02.080Z,16.60
2022-08-05T01:46:42.442Z,13.50
2022-08-05T01:49:23.828Z,11.90
2022-08-05T01:51:58.377Z,11.55
2022-08-05T01:54:34.207Z,10.93
2022-08-05T01:58:10.297Z,10.00
2022-08-05T02:00:12.018Z,10.30
2022-08-05T02:03:16.404Z,9.77
2022-08-05T02:05:57.880Z,9.75
2022-08-05T02:08:31.326Z,9.90
2022-08-05T02:11:33.146Z,10.27
2022-08-05T02:14:14.739Z,10.23
2022-08-05T02:17:16.743Z,10.27
2022-08-05T02:20:01.941Z,10.25
2022-08-05T02:22:37.524Z,11.15
2022-08-05T02:25:12.547Z,10.80
2022-08-05T02:27:59.224Z,11.07
2022-08-05T02:30:34.471Z,11.60
2022-08-05T02:33:04.979Z,11.73
2022-08-05T02:35:43.767Z,11.65
2022-08-05T02:38:19.997Z,12.27
2022-08-05T02:40:54.702Z,12.05
2022-08-05T02:43:24.943Z,11.77
2022-08-05T02:45:54.081Z,11.85
2022-08-05T02:48:29.069Z,12.50
2022-08-05T02:51:01.116Z,11.85
2022-08-05T02:53:35.886Z,11.98
2022-08-05T02:56:16.111Z,11.18
2022-08-05T02:58:51.427Z,11.80
2022-08-05T03:01:28.435Z,11.82
2022-08-05T03:04:08.919Z,11.88
2022-08-05T03:06:54.853Z,12.90
2022-08-05T03:09:36.246Z,12.15
2022-08-05T03:12:06.004Z,12.43
2022-08-05T03:14:33.607Z,12.30
2022-08-05T03:17:01.052Z,10.88
2022-08-05T03:19:33.874Z,11.35
2022-08-05T03:22:04.898Z,12.00
2022-08-05T03:24:47.181Z,11.47
2022-08-05T03:27:19.092Z,11.02
2022-08-05T03:30:08.152Z,11.00
2022-08-05T03:32:34.759Z,11.43
2022-08-05T03:35:04.637Z,11.68
2022-08-05T03:37:46.417Z,11.90
2022-08-05T03:40:15.414Z,11.57
2022-08-05T03:42:52.886Z,11.35
2022-08-05T03:45:23.244Z,12.05
2022-08-05T03:47:51.701Z,11.95
2022-08-05T03:50:25.802Z,11.30
2022-08-05T03:55:06.709Z,12.98
2022-08-05T03:56:10.784Z,11.48
2022-08-05T03:58:44.774Z,11.20
2022-08-05T04:01:14.934Z,11.65
2022-08-05T04:04:05.434Z,12.17
2022-08-05T04:06:35.276Z,12.98
2022-08-05T04:09:06.389Z,11.82
2022-08-05T04:11:47.242Z,12.73
2022-08-05T04:14:18.191Z,13.15
2022-08-05T04:16:46.222Z,13.98
2022-08-05T04:19:14.962Z,15.00
2022-08-05T04:22:09.703Z,13.18
2022-08-05T04:24:32.548Z,11.90
2022-08-05T04:27:00.070Z,11.85
2022-08-05T04:29:28.483Z,12.35
2022-08-05T04:31:57.457Z,12.18
2022-08-05T04:34:32.637Z,12.68
2022-08-05T04:37:03.376Z,12.15
2022-08-05T04:39:32.151Z,12.20
2022-08-05T04:42:00.409Z,11.93
2022-08-05T04:44:30.610Z,11.75
2022-08-05T04:46:59.636Z,11.90
2022-08-05T04:49:39.118Z,11.73
2022-08-05T04:52:16.080Z,11.85
2022-08-05T04:54:43.745Z,12.32
2022-08-05T04:57:11.291Z,10.55
2022-08-05T04:59:40.704Z,10.13
2022-08-05T05:02:41.966Z,9.90
2022-08-05T05:05:02.841Z,9.57
2022-08-05T05:07:32.298Z,10.18
2022-08-05T05:10:04.531Z,10.05
2022-08-05T05:12:32.631Z,10.00
2022-08-05T05:15:00.106Z,10.45
2022-08-05T05:17:56.632Z,10.25
2022-08-05T05:20:28.691Z,9.25
2022-08-05T05:22:58.347Z,9.65
2022-08-05T05:25:40.585Z,11.30
2022-08-05T05:28:10.392Z,12.25
2022-08-05T05:30:39.101Z,11.68
2022-08-05T05:33:16.439Z,11.82
2022-08-05T05:35:47.698Z,9.48
2022-08-05T05:38:22.628Z,8.77
2022-08-05T05:40:58.173Z,9.23
2022-08-05T05:43:56.488Z,8.60
2022-08-05T05:46:15.915Z,8.75
2022-08-05T05:48:48.306Z,8.52
2022-08-05T05:51:20.897Z,8.80
2022-08-05T05:53:57.227Z,8.70
2022-08-05T05:56:32.618Z,8.68
2022-08-05T05:59:06.997Z,8.50
2022-08-05T06:01:37.980Z,8.13
2022-08-05T06:06:47.788Z,8.10
2022-08-05T06:09:25.646Z,8.02
2022-08-05T06:12:00.034Z,8.27
2022-08-05T06:14:31.014Z,8.10
2022-08-05T06:16:59.267Z,8.95
2022-08-05T06:19:35.088Z,8.43
2022-08-05T06:22:04.477Z,8.27
2022-08-05T06:24:42.205Z,7.60
2022-08-05T06:28:09.053Z,7.80
2022-08-05T06:30:20.909Z,7.95
2022-08-05T06:32:50.800Z,8.05
2022-08-05T06:36:03.715Z,8.25
2022-08-05T06:38:10.113Z,8.52
2022-08-05T06:40:44.678Z,8.13
2022-08-05T06:43:58.622Z,8.18
2022-08-05T06:46:06.608Z,7.43
2022-08-05T06:48:55.338Z,7.53
2022-08-05T06:51:30.050Z,7.30
2022-08-05T06:54:00.140Z,6.90
2022-08-05T06:56:34.861Z,7.00
2022-08-05T06:59:09.415Z,6.70
2022-08-05T07:01:40.482Z,6.13
2022-08-05T07:04:09.373Z,7.30
2022-08-05T07:06:37.456Z,7.00
2022-08-05T07:09:05.326Z,6.47
2022-08-05T07:11:37.078Z,6.55
2022-08-05T07:14:29.449Z,6.97
2022-08-05T07:18:00.226Z,7.00
2022-08-05T07:22:38.836Z,7.55
2022-08-05T07:25:53.904Z,7.13
2022-08-05T07:28:03.813Z,6.95
2022-08-05T07:30:39.094Z,6.60
2022-08-05T07:33:15.708Z,6.82
2022-08-05T07:36:03.456Z,6.25
2022-08-05T07:38:42.655Z,5.78
2022-08-05T07:42:12.976Z,6.45
2022-08-05T07:44:12.136Z,6.90
2022-08-05T07:46:48.505Z,6.40
2022-08-05T07:49:18.173Z,6.32
2022-08-05T07:51:53.841Z,6.07
2022-08-05T07:54:30.203Z,6.03
2022-08-05T07:57:01.950Z,6.28
2022-08-05T07:59:46.920Z,6.25
2022-08-05T08:02:17.840Z,6.63
2022-08-05T08:04:47.646Z,5.97
2022-08-05T08:07:17.892Z,6.05
2022-08-05T08:09:47.153Z,5.82
2022-08-05T08:12:35.103Z,7.30
2022-08-05T08:15:04.734Z,5.88
2022-08-05T08:17:37.490Z,5.53
2022-08-05T08:20:42.778Z,6.22
2022-08-05T08:22:56.162Z,5.88
2022-08-05T08:25:26.771Z,5.88
2022-08-05T08:28:04.090Z,5.80
2022-08-05T08:30:40.841Z,5.70
2022-08-05T08:33:15.811Z,5.45
2022-08-05T08:35:52.929Z,5.50
2022-08-05T08:38:35.574Z,5.20
2022-08-05T08:41:10.277Z,5.38
2022-08-05T08:45:21.241Z,5.13
2022-08-05T08:46:32.459Z,5.10
2022-08-05T08:50:05.720Z,4.90
2022-08-05T08:52:13.102Z,4.88
2022-08-05T08:54:43.091Z,5.70
2022-08-05T08:57:13.730Z,5.50
2022-08-05T08:59:47.240Z,5.40
2022-08-05T09:02:19.375Z,5.50
2022-08-05T09:07:40.077Z,4.93
2022-08-05T09:10:27.650Z,5.20
2022-08-05T09:12:57.111Z,4.63
2022-08-05T09:15:32.474Z,5.18
2022-08-05T09:18:08.988Z,5.00
2022-08-05T09:20:42.032Z,5.53
2022-08-05T09:23:18.531Z,5.20
2022-08-05T09:26:01.345Z,5.13
2022-08-05T09:28:33.834Z,5.18
2022-08-05T09:31:22.252Z,5.78
2022-08-05T09:34:01.707Z,4.95
2022-08-05T09:36:56.352Z,4.90
2022-08-05T09:39:41.990Z,4.85
2022-08-05T09:42:28.099Z,5.43
2022-08-05T09:45:17.376Z,5.05
2022-08-05T09:47:54.990Z,5.72
2022-08-05T09:50:45.164Z,4.75
2022-08-05T09:53:22.792Z,5.15
2022-08-05T09:56:03.729Z,5.45
2022-08-05T09:58:32.590Z,5.05
2022-08-05T10:01:13.581Z,5.00
2022-08-05T10:04:00.269Z,5.07
2022-08-05T10:06:28.473Z,4.80
2022-08-05T10:09:09.644Z,5.13
2022-08-05T10:11:52.904Z,4.85
2022-08-05T10:14:32.226Z,4.90
2022-08-05T10:17:38.118Z,4.63
2022-08-05T10:20:09.632Z,4.88
2022-08-05T10:22:42.809Z,4.80
2022-08-05T10:25:16.625Z,5.20
2022-08-05T10:28:12.679Z,4.72
2022-08-05T10:31:20.102Z,4.32
2022-08-05T10:33:29.013Z,5.13
2022-08-05T10:35:59.285Z,4.60
2022-08-05T10:38:33.024Z,5.10
2022-08-05T10:41:23.897Z,4.60
2022-08-05T10:43:54.440Z,4.60
2022-08-05T10:46:23.767Z,4.60
2022-08-05T10:49:10.493Z,4.65
2022-08-05T10:51:59.893Z,4.70
2022-08-05T10:55:05.156Z,4.68
2022-08-05T10:57:34.247Z,4.43
2022-08-05T11:00:19.605Z,4.35
2022-08-05T11:03:23.148Z,4.05
2022-08-05T11:06:08.515Z,3.63
2022-08-05T11:09:16.358Z,3.95
2022-08-05T11:11:52.544Z,3.92
2022-08-05T11:14:57.772Z,4.15
2022-08-05T11:17:56.852Z,3.50
2022-08-05T11:20:41.731Z,3.60
2022-08-05T11:24:03.228Z,3.65
2022-08-05T11:26:28.311Z,3.50
2022-08-05T11:29:11.600Z,3.83
2022-08-05T11:31:58.242Z,3.88
2022-08-05T11:34:39.833Z,3.80
2022-08-05T11:38:29.747Z,4.05
2022-08-05T11:39:55.505Z,4.35
2022-08-05T11:42:37.951Z,3.55
2022-08-05T11:45:23.291Z,3.25
2022-08-05T11:47:57.691Z,3.72
2022-08-05T11:50:26.627Z,3.38
2022-08-05T11:52:57.937Z,3.70
2022-08-05T11:55:32.377Z,3.30
2022-08-05T11:58:10.289Z,3.42
2022-08-05T12:00:41.381Z,3.80
2022-08-05T12:03:31.887Z,3.85
2022-08-05T12:06:05.859Z,3.95
2022-08-05T12:08:51.012Z,4.30
2022-08-05T12:11:28.417Z,4.22
2022-08-05T12:14:08.673Z,4.03
2022-08-05T12:16:40.329Z,4.20
2022-08-05T12:20:26.766Z,3.95
2022-08-05T12:22:01.051Z,6.05
2022-08-05T12:24:30.141Z,3.92
2022-08-05T12:26:58.378Z,3.77
2022-08-05T12:29:27.320Z,5.65
2022-08-05T12:32:01.707Z,5.38
2022-08-05T12:34:37.090Z,5.28
2022-08-05T12:37:17.098Z,5.40
2022-08-05T12:40:03.573Z,6.32
2022-08-05T12:42:40.194Z,6.88
2022-08-05T12:45:10.349Z,6.90
2022-08-05T12:48:01.056Z,6.78
2022-08-05T12:50:26.502Z,6.20
2022-08-05T12:53:00.432Z,6.45
2022-08-05T12:55:32.481Z,6.15
2022-08-05T12:58:48.268Z,5.60
2022-08-05T13:02:03.019Z,7.30
2022-08-05T13:03:41.737Z,6.55
2022-08-05T13:06:20.002Z,8.52
2022-08-05T13:08:51.469Z,5.82
2022-08-05T13:12:01.748Z,5.95
2022-08-05T13:14:36.542Z,6.55
2022-08-05T13:17:14.701Z,6.03
2022-08-05T13:19:57.629Z,5.88
2022-08-05T13:22:29.160Z,5.60
2022-08-05T13:25:00.745Z,5.57
2022-08-05T13:27:39.303Z,5.53
2022-08-05T13:30:33.896Z,5.22
2022-08-05T13:33:01.540Z,4.90
2022-08-05T13:35:43.365Z,4.55
2022-08-05T13:38:28.489Z,4.20
2022-08-05T13:41:01.713Z,4.38
2022-08-05T13:43:44.495Z,4.60
2022-08-05T13:46:30.816Z,4.30
2022-08-05T13:49:06.067Z,5.10
2022-08-05T13:51:41.563Z,4.68
2022-08-05T13:56:50.867Z,5.30
2022-08-05T13:59:24.846Z,5.80
2022-08-05T14:01:59.456Z,5.40
2022-08-05T14:04:51.866Z,4.82
2022-08-05T14:08:00.058Z,5.15
2022-08-05T14:10:28.853Z,5.30
2022-08-05T14:12:59.758Z,5.60
2022-08-05T14:16:08.274Z,5.40
2022-08-05T14:18:17.789Z,5.93
2022-08-05T14:20:54.377Z,5.68
2022-08-05T14:23:25.762Z,4.72
2022-08-05T14:25:58.616Z,4.65
2022-08-05T14:28:28.690Z,4.78
2022-08-05T14:31:00.869Z,5.22
2022-08-05T14:33:56.777Z,4.75
2022-08-05T14:36:21.270Z,4.43
2022-08-05T14:38:50.677Z,4.70
2022-08-05T14:41:18.929Z,4.45
2022-08-05T14:43:57.673Z,4.78
2022-08-05T14:46:35.029Z,4.43
2022-08-05T14:49:07.417Z,4.80
2022-08-05T14:51:42.808Z,4.22
2022-08-05T14:54:28.159Z,4.47
2022-08-05T14:56:58.260Z,4.30
2022-08-05T14:59:29.405Z,4.38
2022-08-05T15:02:14.819Z,3.92
2022-08-05T15:04:44.959Z,4.65
2022-08-05T15:08:06.315Z,4.18
2022-08-05T15:10:03.288Z,3.95
2022-08-05T15:12:41.097Z,4.20
2022-08-05T15:15:18.577Z,4.53
2022-08-05T15:18:06.186Z,3.75
2022-08-05T15:20:34.004Z,3.70
2022-08-05T15:23:06.152Z,3.60
2022-08-05T15:25:51.965Z,3.75
2022-08-05T15:28:23.039Z,3.60
2022-08-05T15:30:55.410Z,3.95
2022-08-05T15:34:05.345Z,3.95
2022-08-05T15:36:17.746Z,3.60
2022-08-05T15:40:41.174Z,3.45
2022-08-05T15:41:57.533Z,3.70
2022-08-05T15:44:29.947Z,3.65
2022-08-05T15:46:59.399Z,3.78
2022-08-05T15:49:48.094Z,3.90
2022-08-05T15:52:29.111Z,4.10
2022-08-05T15:55:03.785Z,3.58
2022-08-05T15:57:33.164Z,3.83
2022-08-05T16:00:06.582Z,3.88
2022-08-05T16:02:34.275Z,4.30
2022-08-05T16:05:02.001Z,4.07
2022-08-05T16:07:29.789Z,4.78
2022-08-05T16:09:57.376Z,4.50
2022-08-05T16:12:25.107Z,4.50
2022-08-05T16:14:52.866Z,4.13
2022-08-05T16:17:20.400Z,4.38
2022-08-05T16:20:03.255Z,4.50
2022-08-05T16:22:34.222Z,4.47
2022-08-05T16:25:08.158Z,7.55
2022-08-05T16:27:59.952Z,4.10
2022-08-05T16:30:28.792Z,4.25
2022-08-05T16:32:58.061Z,3.97
2022-08-05T16:35:28.617Z,4.05
2022-08-05T16:38:16.265Z,3.90
2022-08-05T16:40:55.457Z,4.18
2022-08-05T16:43:28.908Z,4.35
2022-08-05T16:46:06.977Z,4.00
2022-08-05T16:48:44.123Z,4.00
2022-08-05T16:51:11.685Z,4.18
2022-08-05T16:54:03.946Z,4.40
2022-08-05T16:56:30.089Z,4.65
2022-08-05T16:58:58.780Z,4.78
2022-08-05T17:04:15.543Z,4.55
2022-08-05T17:06:46.151Z,4.65
2022-08-05T17:09:21.447Z,4.63
2022-08-05T17:11:55.921Z,4.90
2022-08-05T17:14:36.756Z,4.80
2022-08-05T17:17:14.289Z,4.90
2022-08-05T17:19:45.320Z,5.28
2022-08-05T17:22:17.732Z,5.30
2022-08-05T17:24:57.781Z,4.80
2022-08-05T17:27:33.607Z,5.20
2022-08-05T17:30:12.050Z,5.03
2022-08-05T17:32:46.467Z,4.70
2022-08-05T17:35:15.515Z,5.20
2022-08-05T17:37:48.381Z,5.30
2022-08-05T17:40:17.638Z,5.20
2022-08-05T17:42:50.597Z,5.32
2022-08-05T17:45:22.156Z,5.43
2022-08-05T17:47:55.697Z,5.43
2022-08-05T17:50:30.316Z,5.95
2022-08-05T17:53:00.468Z,5.40
2022-08-05T17:55:38.389Z,6.72
2022-08-05T17:58:12.443Z,5.22
2022-08-05T18:00:45.366Z,5.85
2022-08-05T18:03:55.870Z,5.80
2022-08-05T18:06:12.034Z,6.10
2022-08-05T18:08:52.395Z,6.05
2022-08-05T18:11:24.419Z,6.68
2022-08-05T18:14:06.808Z,6.65
2022-08-05T18:16:51.028Z,9.30
2022-08-05T18:19:22.891Z,8.25
2022-08-05T18:22:07.692Z,7.93
2022-08-05T18:24:39.631Z,7.53
2022-08-05T18:27:18.555Z,7.00
2022-08-05T18:29:53.550Z,6.38
2022-08-05T18:32:28.269Z,5.97
2022-08-05T18:34:56.604Z,5.88
2022-08-05T18:37:34.458Z,5.75
2022-08-05T18:41:52.665Z,5.82
2022-08-05T18:42:57.060Z,5.82
2022-08-05T18:45:24.964Z,5.68
2022-08-05T18:48:11.275Z,5.97
2022-08-05T18:53:50.169Z,5.85
2022-08-05T18:56:21.818Z,5.60
2022-08-05T18:58:54.733Z,6.50
2022-08-05T19:01:33.272Z,6.15
2022-08-05T19:04:12.376Z,6.53
2022-08-05T19:06:44.822Z,6.50
2022-08-05T19:09:13.043Z,7.10
2022-08-05T19:12:00.945Z,6.70
2022-08-05T19:14:59.391Z,6.78
2022-08-05T19:17:16.656Z,7.40
2022-08-05T19:19:47.036Z,8.30
2022-08-05T19:22:17.736Z,8.07
2022-08-05T19:24:56.057Z,8.00
2022-08-05T19:27:30.168Z,8.35
2022-08-05T19:29:58.536Z,8.32
2022-08-05T19:32:27.841Z,9.80
2022-08-05T19:34:57.823Z,8.90
2022-08-05T19:37:29.923Z,9.40
2022-08-05T19:40:15.094Z,9.18
2022-08-05T19:42:42.754Z,9.35
2022-08-05T19:45:30.565Z,8.82
2022-08-05T19:48:04.531Z,9.40
2022-08-05T19:50:33.021Z,8.68
2022-08-05T19:53:10.244Z,8.93
2022-08-05T19:56:15.440Z,9.50
2022-08-05T19:58:29.103Z,9.13
2022-08-05T20:00:58.120Z,9.75
2022-08-05T20:03:26.506Z,11.90
2022-08-05T20:05:56.680Z,9.20
2022-08-05T20:08:25.416Z,9.43
2022-08-05T20:10:54.259Z,9.15
2022-08-05T20:13:25.826Z,8.88
2022-08-05T20:15:58.020Z,9.20
2022-08-05T20:18:32.825Z,8.68
2022-08-05T20:21:05.067Z,9.23
2022-08-05T20:23:39.269Z,9.50
2022-08-05T20:26:17.700Z,8.27
2022-08-05T20:28:48.875Z,8.98
2022-08-05T20:31:17.734Z,8.55
2022-08-05T20:33:49.612Z,8.98
2022-08-05T20:36:17.974Z,9.80
2022-08-05T20:38:54.265Z,10.02
2022-08-05T20:41:43.120Z,9.93
2022-08-05T20:44:18.413Z,9.70
2022-08-05T20:47:05.358Z,9.40
2022-08-05T20:49:39.466Z,9.57
2022-08-05T20:52:08.778Z,9.68
2022-08-05T20:57:43.894Z,10.23
2022-08-05T21:00:41.642Z,9.70
2022-08-05T21:03:08.110Z,9.93
2022-08-05T21:05:47.955Z,9.30
2022-08-05T21:08:26.890Z,9.40
2022-08-05T21:12:00.719Z,10.13
2022-08-05T21:14:01.427Z,9.43
2022-08-05T21:16:30.788Z,10.50
2022-08-05T21:19:00.851Z,10.23
2022-08-05T21:21:43.943Z,9.73
2022-08-05T21:24:19.526Z,9.32
2022-08-05T21:26:53.309Z,10.43
2022-08-05T21:29:26.430Z,10.57
2022-08-05T21:31:59.420Z,9.98
2022-08-05T21:34:26.914Z,9.85
2022-08-05T21:36:55.784Z,10.65
2022-08-05T21:39:26.769Z,10.57
2022-08-05T21:42:01.817Z,10.40
2022-08-05T21:44:31.830Z,9.98
2022-08-05T21:47:00.070Z,9.80
2022-08-05T21:50:00.131Z,10.07
2022-08-05T21:52:27.632Z,9.52
2022-08-05T21:55:06.458Z,9.95
2022-08-05T21:57:35.720Z,9.40
2022-08-05T22:00:06.943Z,9.55
2022-08-05T22:02:39.092Z,9.85
2022-08-05T22:05:08.922Z,9.80
2022-08-05T22:07:39.801Z,9.27
2022-08-05T22:10:25.533Z,10.27
2022-08-05T22:12:59.121Z,9.70
2022-08-05T22:16:01.061Z,9.43
2022-08-05T22:18:24.900Z,10.35
2022-08-05T22:20:53.852Z,9.75
2022-08-05T22:24:02.509Z,10.25
2022-08-05T22:26:49.727Z,9.10
2022-08-05T22:29:26.823Z,9.82
2022-08-05T22:32:02.555Z,9.65
2022-08-05T22:34:31.905Z,10.18
2022-08-05T22:37:00.022Z,9.90
2022-08-05T22:39:33.277Z,9.57
2022-08-05T22:42:10.314Z,9.85
2022-08-05T22:44:42.764Z,9.52
2022-08-05T22:47:29.237Z,9.55
2022-08-05T22:50:21.041Z,10.30
2022-08-05T22:52:48.689Z,9.52
2022-08-05T22:55:19.011Z,10.05
2022-08-05T22:57:49.279Z,9.90
2022-08-05T23:00:20.605Z,9.32
2022-08-05T23:02:49.800Z,9.00
2022-08-05T23:05:19.182Z,9.50
2022-08-05T23:07:51.242Z,9.27
2022-08-05T23:10:20.644Z,8.93
2022-08-05T23:12:55.060Z,9.68
2022-08-05T23:15:29.933Z,9.95
2022-08-05T23:18:03.282Z,10.32
2022-08-05T23:20:37.367Z,9.70
2022-08-05T23:23:05.915Z,9.13
2022-08-05T23:25:51.364Z,8.95
2022-08-05T23:28:22.245Z,9.35
2022-08-05T23:30:53.077Z,9.30
2022-08-05T23:33:26.335Z,9.48
2022-08-05T23:36:10.614Z,8.93
2022-08-05T23:38:38.620Z,9.32
2022-08-05T23:41:06.192Z,9.77
2022-08-05T23:43:37.220Z,9.18
2022-08-05T23:46:22.319Z,8.75
2022-08-05T23:48:59.912Z,8.60
2022-08-05T23:51:57.165Z,9.20
2022-08-05T23:54:36.477Z,8.93
2022-08-05T23:57:07.144Z,8.25
